Robert G. Stone, Jr. — WDD4596 — position and weather

sailwx.info

Track history (hours):
 
Tides and Currents Weather Stations Pressure Air Temp Water Temp Dewpoint Dewpoint Depression Visibility Wind Speed Wind Dir Waves Ship Positions

Robert G. Stone, Jr.

Owner: Kirby Inland Marine, LP, Houston, TX. More information available from US FCC via Universal Licensing System and Coast Guard Vessel Documentation Center.

Last reported at 2015-Feb-01 17:33 UTC. Time now 2015-Feb-01 18:13 UTC.
Position N 29°25' W 094°43'.

Length 27 m; draft 3.1 m.

Type: Towing. MMSI: 367146780.

Date/timePositionNaut miles runAvg speedWind from/ knotsBaromVisibWave heightAir tempDewpointWater temp
2015-Feb-01 17:33N 29°25' W 094°43'0 0.3
2015-Feb-01 16:30N 29°26' W 094°43'0 0.0
2015-Jan-31 21:22N 29°26' W 094°43'0 0.1
2015-Jan-31 19:24N 29°26' W 094°43'31 5.2
2015-Jan-31 13:20N 29°41' W 094°12'6 7.3
2015-Jan-31 12:33N 29°44' W 094°06'129 4.9
2015-Jan-30 10:22N 29°46' W 091°38'5 6.4
2015-Jan-30 09:33N 29°43' W 091°33'7 6.8
2015-Jan-30 08:33N 29°40' W 091°26'4 3.7
2015-Jan-30 07:33N 29°39' W 091°22'0 0.0
2015-Jan-30 06:33N 29°39' W 091°22'0 0.0
2015-Jan-30 05:33N 29°39' W 091°22'0 0.1
2015-Jan-30 04:33N 29°39' W 091°22'2 2.4
2015-Jan-30 03:33N 29°38' W 091°19'6 5.9
2015-Jan-30 02:33N 29°41' W 091°13'6 5.7
2015-Jan-30 01:33N 29°46' W 091°17'6 6.3
2015-Jan-30 00:33N 29°49' W 091°23'7 6.6
2015-Jan-29 23:28N 29°55' W 091°28'  
Track history (hours):
 
Tides and Currents Weather Stations Pressure Air Temp Water Temp Dewpoint Dewpoint Depression Visibility Wind Speed Wind Dir Waves Ship Positions

Robert G. Stone, Jr.

Owner: Kirby Inland Marine, LP, Houston, TX. More information available from US FCC via Universal Licensing System and Coast Guard Vessel Documentation Center.

Last reported at 2015-Feb-01 17:33 UTC. Time now 2015-Feb-01 18:13 UTC.
Position N 29°25' W 094°43'.

Length 27 m; draft 3.1 m.

Type: Towing. MMSI: 367146780.

Date/timePositionNaut miles runAvg speedWind from/ knotsBaromVisibWave heightAir tempDewpointWater temp
2015-Feb-01 17:33N 29°25' W 094°43'0 0.3
2015-Feb-01 16:30N 29°26' W 094°43'0 0.0
2015-Jan-31 21:22N 29°26' W 094°43'0 0.1
2015-Jan-31 19:24N 29°26' W 094°43'31 5.2
2015-Jan-31 13:20N 29°41' W 094°12'6 7.3
2015-Jan-31 12:33N 29°44' W 094°06'129 4.9
2015-Jan-30 10:22N 29°46' W 091°38'5 6.4
2015-Jan-30 09:33N 29°43' W 091°33'7 6.8
2015-Jan-30 08:33N 29°40' W 091°26'4 3.7
2015-Jan-30 07:33N 29°39' W 091°22'0 0.0
2015-Jan-30 06:33N 29°39' W 091°22'0 0.0
2015-Jan-30 05:33N 29°39' W 091°22'0 0.1
2015-Jan-30 04:33N 29°39' W 091°22'2 2.4
2015-Jan-30 03:33N 29°38' W 091°19'6 5.9
2015-Jan-30 02:33N 29°41' W 091°13'6 5.7
2015-Jan-30 01:33N 29°46' W 091°17'6 6.3
2015-Jan-30 00:33N 29°49' W 091°23'7 6.6
2015-Jan-29 23:28N 29°55' W 091°28'  

Dump ship's entire track history